sensor_id;sensor_type;location;lat;lon;timestamp;temperature;humidity
56428;DHT22;42331;53.578;9.760;2023-06-14T00:01:23;14.70;99.90
56428;DHT22;42331;53.578;9.760;2023-06-14T00:03:53;14.80;99.90
56428;DHT22;42331;53.578;9.760;2023-06-14T00:06:24;14.80;99.90
56428;DHT22;42331;53.578;9.760;2023-06-14T00:08:55;14.80;99.90
56428;DHT22;42331;53.578;9.760;2023-06-14T00:11:26;14.80;99.90
56428;DHT22;42331;53.578;9.760;2023-06-14T00:13:57;14.80;99.90
56428;DHT22;42331;53.578;9.760;2023-06-14T00:16:28;14.70;99.90
56428;DHT22;42331;53.578;9.760;2023-06-14T00:18:59;14.70;99.90
56428;DHT22;42331;53.578;9.760;2023-06-14T00:21:30;14.70;99.90
56428;DHT22;42331;53.578;9.760;2023-06-14T00:24:01;14.70;99.90
56428;DHT22;42331;53.578;9.760;2023-06-14T00:26:32;14.70;99.90
56428;DHT22;42331;53.578;9.760;2023-06-14T00:29:03;14.70;99.90
56428;DHT22;42331;53.578;9.760;2023-06-14T00:31:33;14.70;99.90
56428;DHT22;42331;53.578;9.760;2023-06-14T00:34:05;14.70;99.90
56428;DHT22;42331;53.578;9.760;2023-06-14T00:36:36;14.60;99.90
56428;DHT22;42331;53.578;9.760;2023-06-14T00:39:06;14.60;99.90
56428;DHT22;42331;53.578;9.760;2023-06-14T00:41:37;14.60;99.90
56428;DHT22;42331;53.578;9.760;2023-06-14T00:44:08;14.60;99.90
56428;DHT22;42331;53.578;9.760;2023-06-14T00:46:39;14.60;99.90
56428;DHT22;42331;53.578;9.760;2023-06-14T00:49:10;14.60;99.90
56428;DHT22;42331;53.578;9.760;2023-06-14T00:51:42;14.60;99.90
56428;DHT22;42331;53.578;9.760;2023-06-14T00:54:12;14.60;99.90
56428;DHT22;42331;53.578;9.760;2023-06-14T00:56:44;14.50;99.90
56428;DHT22;42331;53.578;9.760;2023-06-14T00:59:15;14.60;99.90
56428;DHT22;42331;53.578;9.760;2023-06-14T01:01:46;14.50;99.90
56428;DHT22;42331;53.578;9.760;2023-06-14T01:04:19;14.50;99.90
56428;DHT22;42331;53.578;9.760;2023-06-14T01:07:15;14.50;99.90
56428;DHT22;42331;53.578;9.760;2023-06-14T01:12:58;14.40;99.90
56428;DHT22;42331;53.578;9.760;2023-06-14T01:15:34;14.40;99.90
56428;DHT22;42331;53.578;9.760;2023-06-14T01:18:05;14.40;99.90
56428;DHT22;42331;53.578;9.760;2023-06-14T01:20:36;14.40;99.90
56428;DHT22;42331;53.578;9.760;2023-06-14T01:23:08;14.40;99.90
56428;DHT22;42331;53.578;9.760;2023-06-14T01:25:38;14.40;99.90
56428;DHT22;42331;53.578;9.760;2023-06-14T01:28:10;14.30;99.90
56428;DHT22;42331;53.578;9.760;2023-06-14T01:30:43;14.30;99.90
56428;DHT22;42331;53.578;9.760;2023-06-14T01:33:20;14.20;99.90
56428;DHT22;42331;53.578;9.760;2023-06-14T01:35:52;14.20;99.90
56428;DHT22;42331;53.578;9.760;2023-06-14T01:38:27;14.10;99.90
56428;DHT22;42331;53.578;9.760;2023-06-14T01:40:59;14.10;99.90
56428;DHT22;42331;53.578;9.760;2023-06-14T01:43:31;14.10;99.90
56428;DHT22;42331;53.578;9.760;2023-06-14T01:46:03;14.10;99.90
56428;DHT22;42331;53.578;9.760;2023-06-14T01:48:35;14.00;99.90
56428;DHT22;42331;53.578;9.760;2023-06-14T01:51:06;14.00;99.90
56428;DHT22;42331;53.578;9.760;2023-06-14T01:53:36;14.00;99.90
56428;DHT22;42331;53.578;9.760;2023-06-14T01:56:07;13.90;99.90
56428;DHT22;42331;53.578;9.760;2023-06-14T01:58:38;13.90;99.90
56428;DHT22;42331;53.578;9.760;2023-06-14T02:01:09;13.90;99.90
56428;DHT22;42331;53.578;9.760;2023-06-14T02:03:41;13.80;99.90
56428;DHT22;42331;53.578;9.760;2023-06-14T02:06:12;13.80;99.90
56428;DHT22;42331;53.578;9.760;2023-06-14T02:08:44;13.80;99.90
56428;DHT22;42331;53.578;9.760;2023-06-14T02:11:15;13.80;99.90
56428;DHT22;42331;53.578;9.760;2023-06-14T02:13:46;13.70;99.90
56428;DHT22;42331;53.578;9.760;2023-06-14T02:16:16;13.70;99.90
56428;DHT22;42331;53.578;9.760;2023-06-14T02:18:48;13.60;99.90
56428;DHT22;42331;53.578;9.760;2023-06-14T02:21:19;13.60;99.90
56428;DHT22;42331;53.578;9.760;2023-06-14T02:23:49;13.50;99.90
56428;DHT22;42331;53.578;9.760;2023-06-14T02:26:20;13.50;99.90
56428;DHT22;42331;53.578;9.760;2023-06-14T02:28:51;13.50;99.90
56428;DHT22;42331;53.578;9.760;2023-06-14T02:31:21;13.40;99.90
56428;DHT22;42331;53.578;9.760;2023-06-14T02:33:52;13.40;99.90
56428;DHT22;42331;53.578;9.760;2023-06-14T02:36:23;13.40;99.90
56428;DHT22;42331;53.578;9.760;2023-06-14T02:38:54;13.30;99.90
56428;DHT22;42331;53.578;9.760;2023-06-14T02:41:27;13.30;99.90
56428;DHT22;42331;53.578;9.760;2023-06-14T02:43:58;13.30;99.90
56428;DHT22;42331;53.578;9.760;2023-06-14T02:46:29;13.30;99.90
56428;DHT22;42331;53.578;9.760;2023-06-14T02:49:00;13.20;99.90
56428;DHT22;42331;53.578;9.760;2023-06-14T02:51:30;13.30;99.90
56428;DHT22;42331;53.578;9.760;2023-06-14T02:54:01;13.30;99.90
56428;DHT22;42331;53.578;9.760;2023-06-14T02:56:32;13.20;99.90
56428;DHT22;42331;53.578;9.760;2023-06-14T02:59:02;13.30;99.90
56428;DHT22;42331;53.578;9.760;2023-06-14T03:01:33;13.30;99.90
56428;DHT22;42331;53.578;9.760;2023-06-14T03:04:11;13.30;99.90
56428;DHT22;42331;53.578;9.760;2023-06-14T03:06:42;13.20;99.90
56428;DHT22;42331;53.578;9.760;2023-06-14T03:09:14;13.20;99.90
56428;DHT22;42331;53.578;9.760;2023-06-14T03:11:45;13.20;99.90
56428;DHT22;42331;53.578;9.760;2023-06-14T03:14:16;13.20;99.90
56428;DHT22;42331;53.578;9.760;2023-06-14T03:16:50;13.20;99.90
56428;DHT22;42331;53.578;9.760;2023-06-14T03:19:27;13.20;99.90
56428;DHT22;42331;53.578;9.760;2023-06-14T03:21:58;13.20;99.90
56428;DHT22;42331;53.578;9.760;2023-06-14T03:24:29;13.20;99.90
56428;DHT22;42331;53.578;9.760;2023-06-14T03:27:06;13.20;99.90
56428;DHT22;42331;53.578;9.760;2023-06-14T03:29:37;13.20;99.90
56428;DHT22;42331;53.578;9.760;2023-06-14T03:32:08;13.20;99.90
56428;DHT22;42331;53.578;9.760;2023-06-14T03:34:39;13.20;99.90
56428;DHT22;42331;53.578;9.760;2023-06-14T03:37:10;13.30;99.90
56428;DHT22;42331;53.578;9.760;2023-06-14T03:39:41;13.30;99.90
56428;DHT22;42331;53.578;9.760;2023-06-14T03:42:16;13.30;99.90
56428;DHT22;42331;53.578;9.760;2023-06-14T03:44:47;13.30;99.90
56428;DHT22;42331;53.578;9.760;2023-06-14T03:47:18;13.30;99.90
56428;DHT22;42331;53.578;9.760;2023-06-14T03:49:48;13.30;99.90
56428;DHT22;42331;53.578;9.760;2023-06-14T03:52:19;13.30;99.90
56428;DHT22;42331;53.578;9.760;2023-06-14T03:54:50;13.30;99.90
56428;DHT22;42331;53.578;9.760;2023-06-14T03:57:22;13.40;99.90
56428;DHT22;42331;53.578;9.760;2023-06-14T03:59:53;13.40;99.90
56428;DHT22;42331;53.578;9.760;2023-06-14T04:02:24;13.50;99.90
56428;DHT22;42331;53.578;9.760;2023-06-14T04:04:55;13.50;99.90
56428;DHT22;42331;53.578;9.760;2023-06-14T04:07:26;13.60;99.90
56428;DHT22;42331;53.578;9.760;2023-06-14T04:09:59;13.70;99.90
56428;DHT22;42331;53.578;9.760;2023-06-14T04:12:29;13.80;99.90
56428;DHT22;42331;53.578;9.760;2023-06-14T04:15:00;13.70;99.90
56428;DHT22;42331;53.578;9.760;2023-06-14T04:17:32;13.80;99.90
56428;DHT22;42331;53.578;9.760;2023-06-14T04:20:06;13.80;99.90
56428;DHT22;42331;53.578;9.760;2023-06-14T04:22:38;13.90;99.90
56428;DHT22;42331;53.578;9.760;2023-06-14T04:25:09;13.90;99.90
56428;DHT22;42331;53.578;9.760;2023-06-14T04:27:42;14.00;99.90
56428;DHT22;42331;53.578;9.760;2023-06-14T04:30:13;14.00;99.90
56428;DHT22;42331;53.578;9.760;2023-06-14T04:32:44;14.00;99.90
56428;DHT22;42331;53.578;9.760;2023-06-14T04:35:16;14.10;99.90
56428;DHT22;42331;53.578;9.760;2023-06-14T04:37:47;14.10;99.90
56428;DHT22;42331;53.578;9.760;2023-06-14T04:40:18;14.20;99.90
56428;DHT22;42331;53.578;9.760;2023-06-14T04:42:48;14.30;99.90
56428;DHT22;42331;53.578;9.760;2023-06-14T04:45:21;14.30;99.90
56428;DHT22;42331;53.578;9.760;2023-06-14T04:47:52;14.40;99.90
56428;DHT22;42331;53.578;9.760;2023-06-14T04:50:29;14.40;99.90
56428;DHT22;42331;53.578;9.760;2023-06-14T04:53:00;14.50;99.90
56428;DHT22;42331;53.578;9.760;2023-06-14T04:55:31;14.50;99.90
56428;DHT22;42331;53.578;9.760;2023-06-14T04:58:03;14.60;99.90
56428;DHT22;42331;53.578;9.760;2023-06-14T05:00:33;14.60;99.90
56428;DHT22;42331;53.578;9.760;2023-06-14T05:03:04;14.70;99.90
56428;DHT22;42331;53.578;9.760;2023-06-14T05:05:36;14.80;99.90
56428;DHT22;42331;53.578;9.760;2023-06-14T05:08:07;14.90;99.90
56428;DHT22;42331;53.578;9.760;2023-06-14T05:10:39;15.00;99.90
56428;DHT22;42331;53.578;9.760;2023-06-14T05:13:09;15.00;99.90
56428;DHT22;42331;53.578;9.760;2023-06-14T05:15:41;15.10;99.90
56428;DHT22;42331;53.578;9.760;2023-06-14T05:18:13;15.20;99.90
56428;DHT22;42331;53.578;9.760;2023-06-14T05:20:43;15.20;99.90
56428;DHT22;42331;53.578;9.760;2023-06-14T05:23:14;15.30;99.90
56428;DHT22;42331;53.578;9.760;2023-06-14T05:25:46;15.30;99.90
56428;DHT22;42331;53.578;9.760;2023-06-14T05:28:16;15.40;99.90
56428;DHT22;42331;53.578;9.760;2023-06-14T05:30:47;15.50;99.90
56428;DHT22;42331;53.578;9.760;2023-06-14T05:33:18;15.70;99.90
56428;DHT22;42331;53.578;9.760;2023-06-14T05:35:48;15.80;99.90
56428;DHT22;42331;53.578;9.760;2023-06-14T05:38:19;15.80;99.90
56428;DHT22;42331;53.578;9.760;2023-06-14T05:40:50;15.90;99.90
56428;DHT22;42331;53.578;9.760;2023-06-14T05:43:21;16.00;99.90
56428;DHT22;42331;53.578;9.760;2023-06-14T05:45:51;16.10;99.90
56428;DHT22;42331;53.578;9.760;2023-06-14T05:48:22;16.20;99.90
56428;DHT22;42331;53.578;9.760;2023-06-14T05:50:53;16.30;99.90
56428;DHT22;42331;53.578;9.760;2023-06-14T05:53:23;16.50;99.90
56428;DHT22;42331;53.578;9.760;2023-06-14T05:55:54;16.60;99.90
56428;DHT22;42331;53.578;9.760;2023-06-14T05:58:25;16.70;99.90
56428;DHT22;42331;53.578;9.760;2023-06-14T06:00:56;16.80;99.90
56428;DHT22;42331;53.578;9.760;2023-06-14T06:03:27;16.90;99.90
56428;DHT22;42331;53.578;9.760;2023-06-14T06:05:59;16.90;99.90
56428;DHT22;42331;53.578;9.760;2023-06-14T06:08:30;17.10;99.90
56428;DHT22;42331;53.578;9.760;2023-06-14T06:11:01;17.20;99.90
56428;DHT22;42331;53.578;9.760;2023-06-14T06:13:32;17.30;99.90
56428;DHT22;42331;53.578;9.760;2023-06-14T06:16:03;17.40;99.90
56428;DHT22;42331;53.578;9.760;2023-06-14T06:18:34;17.40;99.90
56428;DHT22;42331;53.578;9.760;2023-06-14T06:21:06;17.40;99.90
56428;DHT22;42331;53.578;9.760;2023-06-14T06:23:36;17.60;99.90
56428;DHT22;42331;53.578;9.760;2023-06-14T06:26:07;17.50;99.90
56428;DHT22;42331;53.578;9.760;2023-06-14T06:28:38;17.60;99.90
56428;DHT22;42331;53.578;9.760;2023-06-14T06:31:08;17.60;99.90
56428;DHT22;42331;53.578;9.760;2023-06-14T06:33:40;17.70;99.90
56428;DHT22;42331;53.578;9.760;2023-06-14T06:36:11;17.80;99.90
56428;DHT22;42331;53.578;9.760;2023-06-14T06:38:41;17.90;99.90
56428;DHT22;42331;53.578;9.760;2023-06-14T06:41:12;18.00;99.90
56428;DHT22;42331;53.578;9.760;2023-06-14T06:43:43;18.10;99.90
56428;DHT22;42331;53.578;9.760;2023-06-14T06:46:14;18.20;99.90
56428;DHT22;42331;53.578;9.760;2023-06-14T06:48:44;18.30;99.90
56428;DHT22;42331;53.578;9.760;2023-06-14T06:51:15;18.30;99.90
56428;DHT22;42331;53.578;9.760;2023-06-14T06:53:52;18.40;99.90
56428;DHT22;42331;53.578;9.760;2023-06-14T06:56:23;18.60;99.90
56428;DHT22;42331;53.578;9.760;2023-06-14T06:58:54;18.90;99.90
56428;DHT22;42331;53.578;9.760;2023-06-14T07:01:25;19.00;99.90
56428;DHT22;42331;53.578;9.760;2023-06-14T07:03:56;19.10;99.90
56428;DHT22;42331;53.578;9.760;2023-06-14T07:06:27;18.80;99.90
56428;DHT22;42331;53.578;9.760;2023-06-14T07:08:58;18.90;99.90
56428;DHT22;42331;53.578;9.760;2023-06-14T07:11:31;19.20;99.90
56428;DHT22;42331;53.578;9.760;2023-06-14T07:14:02;19.20;99.90
56428;DHT22;42331;53.578;9.760;2023-06-14T07:16:33;19.30;99.90
56428;DHT22;42331;53.578;9.760;2023-06-14T07:19:04;19.60;99.90
56428;DHT22;42331;53.578;9.760;2023-06-14T07:21:38;19.90;99.90
56428;DHT22;42331;53.578;9.760;2023-06-14T07:24:08;20.00;99.90
56428;DHT22;42331;53.578;9.760;2023-06-14T07:26:39;20.20;99.90
56428;DHT22;42331;53.578;9.760;2023-06-14T07:29:10;20.20;99.90
56428;DHT22;42331;53.578;9.760;2023-06-14T07:31:41;20.30;99.90
56428;DHT22;42331;53.578;9.760;2023-06-14T07:34:12;20.40;99.90
56428;DHT22;42331;53.578;9.760;2023-06-14T07:36:43;20.30;99.90
56428;DHT22;42331;53.578;9.760;2023-06-14T07:39:15;20.30;99.90
56428;DHT22;42331;53.578;9.760;2023-06-14T07:41:45;20.40;99.90
56428;DHT22;42331;53.578;9.760;2023-06-14T07:44:16;20.40;99.90
56428;DHT22;42331;53.578;9.760;2023-06-14T07:46:47;20.40;99.90
56428;DHT22;42331;53.578;9.760;2023-06-14T07:49:19;20.40;99.90
56428;DHT22;42331;53.578;9.760;2023-06-14T07:51:50;20.50;99.90
56428;DHT22;42331;53.578;9.760;2023-06-14T07:54:21;20.50;99.90
56428;DHT22;42331;53.578;9.760;2023-06-14T07:56:56;20.60;99.90
56428;DHT22;42331;53.578;9.760;2023-06-14T07:59:27;20.40;99.90
56428;DHT22;42331;53.578;9.760;2023-06-14T08:01:57;20.50;99.90
56428;DHT22;42331;53.578;9.760;2023-06-14T08:04:28;20.50;99.90
56428;DHT22;42331;53.578;9.760;2023-06-14T08:06:59;20.70;99.90
56428;DHT22;42331;53.578;9.760;2023-06-14T08:09:31;21.00;99.90
56428;DHT22;42331;53.578;9.760;2023-06-14T08:12:02;21.00;99.90
56428;DHT22;42331;53.578;9.760;2023-06-14T08:14:33;21.10;99.90
56428;DHT22;42331;53.578;9.760;2023-06-14T08:17:04;21.30;99.90
56428;DHT22;42331;53.578;9.760;2023-06-14T08:19:35;21.40;99.90
56428;DHT22;42331;53.578;9.760;2023-06-14T08:22:07;21.50;99.90
56428;DHT22;42331;53.578;9.760;2023-06-14T08:24:38;21.60;99.90
56428;DHT22;42331;53.578;9.760;2023-06-14T08:27:10;21.60;99.90
56428;DHT22;42331;53.578;9.760;2023-06-14T08:29:41;21.70;99.90
56428;DHT22;42331;53.578;9.760;2023-06-14T08:32:12;21.60;99.90
56428;DHT22;42331;53.578;9.760;2023-06-14T08:34:43;21.60;99.90
56428;DHT22;42331;53.578;9.760;2023-06-14T08:37:13;21.70;99.90
56428;DHT22;42331;53.578;9.760;2023-06-14T08:39:45;21.70;99.90
56428;DHT22;42331;53.578;9.760;2023-06-14T08:42:18;21.80;99.90
56428;DHT22;42331;53.578;9.760;2023-06-14T08:44:52;21.80;99.90
56428;DHT22;42331;53.578;9.760;2023-06-14T08:47:23;21.80;99.90
56428;DHT22;42331;53.578;9.760;2023-06-14T08:49:58;21.80;99.90
56428;DHT22;42331;53.578;9.760;2023-06-14T08:52:33;21.80;99.90
56428;DHT22;42331;53.578;9.760;2023-06-14T08:55:10;22.10;99.90
56428;DHT22;42331;53.578;9.760;2023-06-14T08:57:42;22.40;99.90
56428;DHT22;42331;53.578;9.760;2023-06-14T09:00:13;22.40;99.90
56428;DHT22;42331;53.578;9.760;2023-06-14T09:02:44;22.60;99.90
56428;DHT22;42331;53.578;9.760;2023-06-14T09:05:15;22.20;99.90
56428;DHT22;42331;53.578;9.760;2023-06-14T09:07:49;22.20;99.90
56428;DHT22;42331;53.578;9.760;2023-06-14T09:10:21;22.30;99.90
56428;DHT22;42331;53.578;9.760;2023-06-14T09:12:52;22.60;99.90
56428;DHT22;42331;53.578;9.760;2023-06-14T09:15:22;22.80;99.90
56428;DHT22;42331;53.578;9.760;2023-06-14T09:17:53;23.00;99.90
56428;DHT22;42331;53.578;9.760;2023-06-14T09:20:24;23.10;99.90
56428;DHT22;42331;53.578;9.760;2023-06-14T09:22:55;22.90;99.90
56428;DHT22;42331;53.578;9.760;2023-06-14T09:25:26;23.10;99.90
56428;DHT22;42331;53.578;9.760;2023-06-14T09:27:57;23.00;99.90
56428;DHT22;42331;53.578;9.760;2023-06-14T09:30:29;23.00;99.90
56428;DHT22;42331;53.578;9.760;2023-06-14T09:33:00;22.70;99.90
56428;DHT22;42331;53.578;9.760;2023-06-14T09:35:32;22.70;99.90
56428;DHT22;42331;53.578;9.760;2023-06-14T09:38:02;22.70;99.90
56428;DHT22;42331;53.578;9.760;2023-06-14T09:40:36;22.90;99.90
56428;DHT22;42331;53.578;9.760;2023-06-14T09:43:07;23.30;99.90
56428;DHT22;42331;53.578;9.760;2023-06-14T09:45:41;23.70;99.90
56428;DHT22;42331;53.578;9.760;2023-06-14T09:48:16;23.50;99.90
56428;DHT22;42331;53.578;9.760;2023-06-14T09:50:50;23.30;99.90
56428;DHT22;42331;53.578;9.760;2023-06-14T09:53:21;23.30;99.90
56428;DHT22;42331;53.578;9.760;2023-06-14T09:55:58;23.50;99.90
56428;DHT22;42331;53.578;9.760;2023-06-14T09:58:35;23.70;99.90
56428;DHT22;42331;53.578;9.760;2023-06-14T10:01:08;24.20;99.90
56428;DHT22;42331;53.578;9.760;2023-06-14T10:03:39;24.60;99.90
56428;DHT22;42331;53.578;9.760;2023-06-14T10:06:11;24.40;99.90
56428;DHT22;42331;53.578;9.760;2023-06-14T10:08:42;24.60;99.90
56428;DHT22;42331;53.578;9.760;2023-06-14T10:11:14;25.20;99.90
56428;DHT22;42331;53.578;9.760;2023-06-14T10:13:45;24.90;99.90
56428;DHT22;42331;53.578;9.760;2023-06-14T10:16:28;24.20;99.90
56428;DHT22;42331;53.578;9.760;2023-06-14T10:21:46;24.20;99.90
56428;DHT22;42331;53.578;9.760;2023-06-14T10:24:33;25.20;99.90
56428;DHT22;42331;53.578;9.760;2023-06-14T10:27:09;25.60;99.90
56428;DHT22;42331;53.578;9.760;2023-06-14T10:32:24;24.20;99.90
56428;DHT22;42331;53.578;9.760;2023-06-14T10:34:57;24.10;99.90
56428;DHT22;42331;53.578;9.760;2023-06-14T10:37:28;24.60;99.90
56428;DHT22;42331;53.578;9.760;2023-06-14T10:39:59;25.90;99.90
56428;DHT22;42331;53.578;9.760;2023-06-14T10:42:33;26.80;99.90
56428;DHT22;42331;53.578;9.760;2023-06-14T10:45:04;27.30;99.90
56428;DHT22;42331;53.578;9.760;2023-06-14T10:47:35;26.30;99.90
56428;DHT22;42331;53.578;9.760;2023-06-14T10:50:10;24.70;99.90
56428;DHT22;42331;53.578;9.760;2023-06-14T10:52:43;24.70;99.90
56428;DHT22;42331;53.578;9.760;2023-06-14T10:55:15;25.90;99.90
56428;DHT22;42331;53.578;9.760;2023-06-14T10:57:49;25.10;99.90
56428;DHT22;42331;53.578;9.760;2023-06-14T11:00:28;24.80;99.90
56428;DHT22;42331;53.578;9.760;2023-06-14T11:05:58;25.30;99.90
56428;DHT22;42331;53.578;9.760;2023-06-14T11:11:25;26.40;99.90
56428;DHT22;42331;53.578;9.760;2023-06-14T11:14:02;25.10;99.90
56428;DHT22;42331;53.578;9.760;2023-06-14T11:16:33;24.80;99.90
56428;DHT22;42331;53.578;9.760;2023-06-14T11:19:04;24.90;99.90
56428;DHT22;42331;53.578;9.760;2023-06-14T11:21:40;24.50;99.90
56428;DHT22;42331;53.578;9.760;2023-06-14T11:24:11;24.30;99.90
56428;DHT22;42331;53.578;9.760;2023-06-14T11:26:46;23.90;99.90
56428;DHT22;42331;53.578;9.760;2023-06-14T11:29:20;23.70;99.90
56428;DHT22;42331;53.578;9.760;2023-06-14T11:31:51;23.40;99.90
56428;DHT22;42331;53.578;9.760;2023-06-14T11:34:22;23.80;99.90
56428;DHT22;42331;53.578;9.760;2023-06-14T11:36:53;24.00;99.90
56428;DHT22;42331;53.578;9.760;2023-06-14T11:39:26;24.10;99.90
56428;DHT22;42331;53.578;9.760;2023-06-14T11:41:58;24.10;99.90
56428;DHT22;42331;53.578;9.760;2023-06-14T11:44:31;24.50;99.90
56428;DHT22;42331;53.578;9.760;2023-06-14T11:47:03;24.20;99.90
56428;DHT22;42331;53.578;9.760;2023-06-14T11:49:37;24.20;99.90
56428;DHT22;42331;53.578;9.760;2023-06-14T11:52:08;24.20;99.90
56428;DHT22;42331;53.578;9.760;2023-06-14T11:54:56;24.30;99.90
56428;DHT22;42331;53.578;9.760;2023-06-14T11:57:34;24.50;99.90
56428;DHT22;42331;53.578;9.760;2023-06-14T12:00:09;24.50;99.90
56428;DHT22;42331;53.578;9.760;2023-06-14T12:02:51;24.40;99.90
56428;DHT22;42331;53.578;9.760;2023-06-14T12:05:23;24.20;99.90
56428;DHT22;42331;53.578;9.760;2023-06-14T12:08:03;24.00;99.90
56428;DHT22;42331;53.578;9.760;2023-06-14T12:10:40;23.70;99.90
56428;DHT22;42331;53.578;9.760;2023-06-14T12:13:17;23.50;99.90
56428;DHT22;42331;53.578;9.760;2023-06-14T12:15:55;23.30;99.90
56428;DHT22;42331;53.578;9.760;2023-06-14T12:18:36;23.20;99.90
56428;DHT22;42331;53.578;9.760;2023-06-14T12:21:08;23.20;99.90
56428;DHT22;42331;53.578;9.760;2023-06-14T12:23:47;23.10;99.90
56428;DHT22;42331;53.578;9.760;2023-06-14T12:26:19;23.20;99.90
56428;DHT22;42331;53.578;9.760;2023-06-14T12:28:51;23.30;99.90
56428;DHT22;42331;53.578;9.760;2023-06-14T12:31:22;23.40;99.90
56428;DHT22;42331;53.578;9.760;2023-06-14T12:33:53;23.40;99.90
56428;DHT22;42331;53.578;9.760;2023-06-14T12:36:24;23.30;99.90
56428;DHT22;42331;53.578;9.760;2023-06-14T12:38:55;23.50;99.90
56428;DHT22;42331;53.578;9.760;2023-06-14T12:41:26;23.50;99.90
56428;DHT22;42331;53.578;9.760;2023-06-14T12:43:57;23.40;99.90
56428;DHT22;42331;53.578;9.760;2023-06-14T12:46:33;23.30;99.90
56428;DHT22;42331;53.578;9.760;2023-06-14T12:49:07;23.30;99.90
56428;DHT22;42331;53.578;9.760;2023-06-14T12:51:39;23.30;99.90
56428;DHT22;42331;53.578;9.760;2023-06-14T12:54:10;23.20;99.90
56428;DHT22;42331;53.578;9.760;2023-06-14T12:56:41;23.20;99.90
56428;DHT22;42331;53.578;9.760;2023-06-14T12:59:13;23.20;99.90
56428;DHT22;42331;53.578;9.760;2023-06-14T13:01:45;23.20;99.90
56428;DHT22;42331;53.578;9.760;2023-06-14T13:04:18;23.20;99.90
56428;DHT22;42331;53.578;9.760;2023-06-14T13:06:48;23.60;99.90
56428;DHT22;42331;53.578;9.760;2023-06-14T13:09:19;23.80;99.90
56428;DHT22;42331;53.578;9.760;2023-06-14T13:11:50;23.90;99.90
56428;DHT22;42331;53.578;9.760;2023-06-14T13:14:20;23.80;99.90
56428;DHT22;42331;53.578;9.760;2023-06-14T13:16:51;23.80;99.90
56428;DHT22;42331;53.578;9.760;2023-06-14T13:19:22;23.80;99.90
56428;DHT22;42331;53.578;9.760;2023-06-14T13:21:55;23.90;99.90
56428;DHT22;42331;53.578;9.760;2023-06-14T13:24:26;24.00;99.90
56428;DHT22;42331;53.578;9.760;2023-06-14T13:26:57;24.30;99.90
56428;DHT22;42331;53.578;9.760;2023-06-14T13:29:28;24.40;99.90
56428;DHT22;42331;53.578;9.760;2023-06-14T13:32:04;24.60;99.90
56428;DHT22;42331;53.578;9.760;2023-06-14T13:34:35;24.20;99.90
56428;DHT22;42331;53.578;9.760;2023-06-14T13:37:06;23.90;99.90
56428;DHT22;42331;53.578;9.760;2023-06-14T13:39:36;23.90;99.90
56428;DHT22;42331;53.578;9.760;2023-06-14T13:42:08;23.90;99.90
56428;DHT22;42331;53.578;9.760;2023-06-14T13:44:38;24.00;99.90
56428;DHT22;42331;53.578;9.760;2023-06-14T13:47:09;24.00;99.90
56428;DHT22;42331;53.578;9.760;2023-06-14T13:49:40;24.20;99.90
56428;DHT22;42331;53.578;9.760;2023-06-14T13:52:11;24.10;99.90
56428;DHT22;42331;53.578;9.760;2023-06-14T13:54:43;24.20;99.90
56428;DHT22;42331;53.578;9.760;2023-06-14T13:57:14;24.40;99.90
56428;DHT22;42331;53.578;9.760;2023-06-14T13:59:45;24.40;99.90
56428;DHT22;42331;53.578;9.760;2023-06-14T14:02:19;24.30;99.90
56428;DHT22;42331;53.578;9.760;2023-06-14T14:04:49;24.60;99.90
56428;DHT22;42331;53.578;9.760;2023-06-14T14:07:23;24.70;99.90
56428;DHT22;42331;53.578;9.760;2023-06-14T14:09:54;24.90;99.90
56428;DHT22;42331;53.578;9.760;2023-06-14T14:12:27;24.60;99.90
56428;DHT22;42331;53.578;9.760;2023-06-14T14:14:59;24.30;99.90
56428;DHT22;42331;53.578;9.760;2023-06-14T14:17:30;24.00;99.90
56428;DHT22;42331;53.578;9.760;2023-06-14T14:20:00;23.90;99.90
56428;DHT22;42331;53.578;9.760;2023-06-14T14:22:31;23.80;99.90
56428;DHT22;42331;53.578;9.760;2023-06-14T14:25:02;23.80;99.90
56428;DHT22;42331;53.578;9.760;2023-06-14T14:27:32;23.90;99.90
56428;DHT22;42331;53.578;9.760;2023-06-14T14:30:04;24.00;99.90
56428;DHT22;42331;53.578;9.760;2023-06-14T14:32:34;24.20;99.90
56428;DHT22;42331;53.578;9.760;2023-06-14T14:35:06;24.40;99.90
56428;DHT22;42331;53.578;9.760;2023-06-14T14:37:36;24.40;99.90
56428;DHT22;42331;53.578;9.760;2023-06-14T14:40:08;24.20;99.90
56428;DHT22;42331;53.578;9.760;2023-06-14T14:46:19;24.20;99.90
56428;DHT22;42331;53.578;9.760;2023-06-14T14:48:53;24.20;99.90
56428;DHT22;42331;53.578;9.760;2023-06-14T14:51:37;24.30;99.90
56428;DHT22;42331;53.578;9.760;2023-06-14T14:54:26;24.40;99.90
56428;DHT22;42331;53.578;9.760;2023-06-14T14:57:02;24.60;99.90
56428;DHT22;42331;53.578;9.760;2023-06-14T15:00:19;24.60;99.90
56428;DHT22;42331;53.578;9.760;2023-06-14T15:02:58;24.30;99.90
56428;DHT22;42331;53.578;9.760;2023-06-14T15:05:29;24.00;99.90
56428;DHT22;42331;53.578;9.760;2023-06-14T15:08:06;23.80;99.90
56428;DHT22;42331;53.578;9.760;2023-06-14T15:10:49;23.60;99.90
56428;DHT22;42331;53.578;9.760;2023-06-14T15:13:35;23.60;99.90
56428;DHT22;42331;53.578;9.760;2023-06-14T15:16:08;23.60;99.90
56428;DHT22;42331;53.578;9.760;2023-06-14T15:18:39;23.60;99.90
56428;DHT22;42331;53.578;9.760;2023-06-14T15:21:13;23.70;99.90
56428;DHT22;42331;53.578;9.760;2023-06-14T15:23:57;23.80;99.90
56428;DHT22;42331;53.578;9.760;2023-06-14T15:26:28;23.90;99.90
56428;DHT22;42331;53.578;9.760;2023-06-14T15:28:59;24.00;99.90
56428;DHT22;42331;53.578;9.760;2023-06-14T15:31:30;24.00;99.90
56428;DHT22;42331;53.578;9.760;2023-06-14T15:34:01;23.90;99.90
56428;DHT22;42331;53.578;9.760;2023-06-14T15:36:31;24.00;99.90
56428;DHT22;42331;53.578;9.760;2023-06-14T15:39:02;23.90;99.90
56428;DHT22;42331;53.578;9.760;2023-06-14T15:41:33;23.90;99.90
56428;DHT22;42331;53.578;9.760;2023-06-14T15:44:03;23.90;99.90
56428;DHT22;42331;53.578;9.760;2023-06-14T15:46:34;23.70;99.90
56428;DHT22;42331;53.578;9.760;2023-06-14T15:49:12;23.60;99.90
56428;DHT22;42331;53.578;9.760;2023-06-14T15:51:43;23.70;99.90
56428;DHT22;42331;53.578;9.760;2023-06-14T15:54:14;23.60;99.90
56428;DHT22;42331;53.578;9.760;2023-06-14T15:56:45;23.70;99.90
56428;DHT22;42331;53.578;9.760;2023-06-14T15:59:15;23.60;99.90
56428;DHT22;42331;53.578;9.760;2023-06-14T16:01:46;23.80;99.90
56428;DHT22;42331;53.578;9.760;2023-06-14T16:04:17;23.70;99.90
56428;DHT22;42331;53.578;9.760;2023-06-14T16:06:47;23.70;99.90
56428;DHT22;42331;53.578;9.760;2023-06-14T16:09:18;23.70;99.90
56428;DHT22;42331;53.578;9.760;2023-06-14T16:11:49;23.60;99.90
56428;DHT22;42331;53.578;9.760;2023-06-14T16:14:19;23.60;99.90
56428;DHT22;42331;53.578;9.760;2023-06-14T16:16:50;23.50;99.90
56428;DHT22;42331;53.578;9.760;2023-06-14T16:19:21;23.50;99.90